Time;durP1;ratioP1;P1;durP2;ratioP2;P2;SDS_P1;SDS_P2;PMS_P1;PMS_P2;Temp;Humidity;BMP_temperature;BMP_pressure;BME280_temperature;BME280_humidity;BME280_pressure;Samples;Min_cycle;Max_cycle;Signal;HPM_P1;HPM_P2
2023/04/11 00:00:34;;;;;;;5.72;1.40;;;;;;;16.75;49.74;98919.84;5091850;28;20024;-47
2023/04/11 00:03:03;;;;;;;4.85;1.88;;;;;;;16.71;50.26;98923.22;5093150;28;20035;-46
2023/04/11 00:05:32;;;;;;;4.07;1.70;;;;;;;16.76;49.73;98947.16;5093304;28;20092;-46
2023/04/11 00:07:57;;;;;;;4.43;1.42;;;;;;;16.72;49.67;98925.63;5092971;28;20043;-46
2023/04/11 00:10:23;;;;;;;5.07;1.63;;;;;;;16.61;49.80;98926.47;5092932;28;20032;-46
2023/04/11 00:12:49;;;;;;;2.28;1.42;;;;;;;16.54;49.67;98918.66;5092885;28;20051;-47
2023/04/11 00:15:15;;;;;;;8.23;1.80;;;;;;;16.56;49.78;98899.88;5092818;28;20115;-46
2023/04/11 00:17:44;;;;;;;4.57;1.85;;;;;;;16.48;49.80;98900.22;5092853;28;20112;-47
2023/04/11 00:20:11;;;;;;;3.20;1.58;;;;;;;16.47;49.97;98915.31;5093018;28;20028;-46
2023/04/11 00:22:38;;;;;;;4.63;1.63;;;;;;;16.48;50.13;98916.09;5108442;28;20028;-46
2023/04/11 00:25:05;;;;;;;3.03;1.55;;;;;;;16.49;49.51;98913.22;5108407;28;20077;-47
2023/04/11 00:27:30;;;;;;;4.80;1.35;;;;;;;16.49;49.79;98905.28;5091302;28;20030;-48
2023/04/11 00:29:56;;;;;;;3.53;1.67;;;;;;;16.54;49.23;98918.66;5092439;28;20052;-46
2023/04/11 00:32:23;;;;;;;3.95;1.55;;;;;;;16.60;48.48;98910.78;5108235;28;20031;-46
2023/04/11 00:34:50;;;;;;;2.47;1.13;;;;;;;16.58;47.98;98911.84;5108161;28;20035;-47
2023/04/11 00:37:16;;;;;;;6.45;2.20;;;;;;;16.57;48.25;98922.66;5074511;28;20110;-46
2023/04/11 00:39:44;;;;;;;5.05;1.85;;;;;;;16.58;47.75;98906.53;5108223;28;20390;-46
2023/04/11 00:42:10;;;;;;;3.90;1.50;;;;;;;16.64;46.92;98911.94;5092157;28;20023;-47
2023/04/11 00:44:36;;;;;;;4.05;1.50;;;;;;;16.56;46.62;98895.38;5092432;28;20032;-47
2023/04/11 00:47:05;;;;;;;3.20;1.30;;;;;;;16.59;46.09;98899.38;5092278;28;20485;-47
2023/04/11 00:49:31;;;;;;;5.70;1.73;;;;;;;16.62;45.79;98903.41;5091006;28;20032;-46
2023/04/11 00:51:58;;;;;;;4.20;1.40;;;;;;;16.55;45.47;98890.31;5092206;28;20114;-46
2023/04/11 00:54:29;;;;;;;1.30;1.20;;;;;;;16.53;45.16;98897.69;5092193;28;20032;-46
2023/04/11 00:56:58;;;;;;;5.45;1.88;;;;;;;16.49;45.02;98899.97;5092279;28;20458;-46
2023/04/11 00:59:27;;;;;;;6.40;1.73;;;;;;;16.46;46.82;98905.75;5074213;28;20029;-46
2023/04/11 01:01:53;;;;;;;6.93;2.08;;;;;;;16.24;48.44;98902.09;5092111;28;20030;-46
2023/04/11 01:04:20;;;;;;;6.82;1.65;;;;;;;16.01;48.13;98887.03;5092127;28;20028;-47
2023/04/11 01:06:51;;;;;;;2.90;1.33;;;;;;;15.93;47.16;98912.78;5107632;28;20405;-46
2023/04/11 01:09:20;;;;;;;2.85;1.30;;;;;;;16.01;46.29;98901.06;5107744;28;20496;-47
2023/04/11 01:11:48;;;;;;;4.22;1.48;;;;;;;16.08;45.98;98909.72;5090755;28;20032;-47
2023/04/11 01:14:15;;;;;;;3.33;1.10;;;;;;;16.10;45.26;98910.28;5091968;28;20102;-47
2023/04/11 01:16:42;;;;;;;3.25;1.20;;;;;;;16.05;45.50;98891.63;5091909;28;20089;-47
2023/04/11 01:19:08;;;;;;;6.10;1.65;;;;;;;16.08;45.99;98906.25;5091916;28;20512;-47
2023/04/11 01:21:35;;;;;;;6.38;2.00;;;;;;;16.12;45.58;98899.47;5107571;28;20032;-47
2023/04/11 01:24:02;;;;;;;5.60;2.33;;;;;;;16.13;44.93;98896.56;5091797;28;20520;-46
2023/04/11 01:26:29;;;;;;;2.80;1.73;;;;;;;16.17;44.88;98892.41;5107464;28;20031;-47
2023/04/11 01:28:55;;;;;;;2.95;1.52;;;;;;;16.07;44.94;98889.53;5091653;28;20072;-46
2023/04/11 01:31:21;;;;;;;2.40;1.65;;;;;;;16.09;44.86;98900.72;5091833;28;20028;-47
2023/04/11 01:33:47;;;;;;;4.03;1.25;;;;;;;16.11;44.86;98892.53;5090514;28;20102;-47
2023/04/11 01:36:13;;;;;;;4.20;1.70;;;;;;;16.10;44.97;98893.59;5090476;28;20038;-47
2023/04/11 01:38:38;;;;;;;3.42;1.58;;;;;;;16.08;45.09;98900.97;5107426;28;20047;-47
2023/04/11 01:41:07;;;;;;;3.90;2.17;;;;;;;16.12;44.83;98894.16;5091679;28;20420;-47
2023/04/11 01:43:33;;;;;;;3.63;1.60;;;;;;;16.17;44.93;98899.56;5107407;28;20123;-47
2023/04/11 01:45:58;;;;;;;3.03;1.58;;;;;;;16.28;44.64;98882.03;5107322;28;20111;-47
2023/04/11 01:48:24;;;;;;;4.13;1.33;;;;;;;16.33;44.59;98896.19;5091711;28;20401;-46
2023/04/11 01:50:50;;;;;;;3.05;1.40;;;;;;;16.45;44.20;98898.03;5091573;28;20024;-47
2023/04/11 01:53:16;;;;;;;7.88;2.55;;;;;;;16.36;45.02;98908.19;5092665;28;20117;-47
2023/04/11 01:55:42;;;;;;;7.55;3.15;;;;;;;16.32;46.32;98912.34;5111159;28;20050;-47
2023/04/11 01:58:07;;;;;;;9.10;4.22;;;;;;;16.13;47.63;98915.09;5111341;28;20024;-47
2023/04/11 02:00:35;;;;;;;6.15;3.45;;;;;;;16.02;49.35;98915.09;5095849;28;20078;-47
2023/04/11 02:03:02;;;;;;;23.00;10.73;;;;;;;15.87;51.39;98904.97;5111121;28;20024;-47
2023/04/11 02:05:27;;;;;;;11.00;5.10;;;;;;;15.72;52.88;98910.69;5094091;28;20081;-47
2023/04/11 02:07:53;;;;;;;15.65;7.45;;;;;;;15.51;53.37;98909.38;5095398;28;20032;-47
2023/04/11 02:10:19;;;;;;;20.25;6.47;;;;;;;15.35;52.71;98911.66;5095288;28;20028;-47
2023/04/11 02:12:44;;;;;;;16.10;7.07;;;;;;;15.35;53.27;98914.28;5110982;28;20034;-47
2023/04/11 02:15:10;;;;;;;4.80;1.50;;;;;;;15.51;52.38;98915.50;5095422;28;20035;-47
2023/04/11 02:17:36;;;;;;;4.57;2.33;;;;;;;15.65;52.79;98913.41;5095217;28;20111;-47
2023/04/11 02:20:05;;;;;;;7.65;3.83;;;;;;;15.97;51.59;98908.66;5095069;28;20059;-47
2023/04/11 02:22:31;;;;;;;4.90;2.10;;;;;;;16.17;50.85;98916.25;5095122;28;20599;-46
2023/04/11 02:24:57;;;;;;;7.25;1.83;;;;;;;16.38;49.33;98898.19;5095038;28;20031;-47
2023/04/11 02:27:22;;;;;;;7.88;2.15;;;;;;;16.56;47.72;98899.88;5094964;28;20024;-47
2023/04/11 02:29:48;;;;;;;4.80;1.80;;;;;;;16.67;48.37;98904.31;5093480;28;20051;-46
2023/04/11 02:32:13;;;;;;;3.22;1.73;;;;;;;16.75;47.51;98888.03;5095204;28;20026;-47
2023/04/11 02:34:40;;;;;;;5.93;1.95;;;;;;;16.75;47.23;98885.41;5094817;28;20028;-47
2023/04/11 02:37:05;;;;;;;4.70;1.58;;;;;;;16.80;47.83;98894.50;5094774;28;20077;-46
2023/04/11 02:39:31;;;;;;;5.13;2.15;;;;;;;16.84;47.57;98901.78;5110443;28;20032;-46
2023/04/11 02:41:57;;;;;;;12.43;3.33;;;;;;;16.81;47.36;98894.28;5110361;28;20100;-47
2023/04/11 02:44:25;;;;;;;5.03;2.35;;;;;;;16.78;47.21;98900.84;5094730;28;20055;-47
2023/04/11 02:46:50;;;;;;;2.80;1.55;;;;;;;16.86;46.72;98896.22;5093291;28;20030;-47
2023/04/11 02:49:16;;;;;;;10.43;3.05;;;;;;;16.94;49.38;98883.41;5093403;28;20103;-47
2023/04/11 02:51:42;;;;;;;4.18;1.75;;;;;;;16.68;49.17;98881.28;5093375;28;20052;-47
2023/04/11 02:54:07;;;;;;;3.10;1.92;;;;;;;16.43;49.78;98885.03;5094548;28;20026;-47
2023/04/11 02:56:37;;;;;;;6.85;2.17;;;;;;;16.45;49.60;98893.53;5110030;28;20408;-47
2023/04/11 02:59:04;;;;;;;7.60;3.33;;;;;;;16.52;49.16;98893.41;5094327;28;20043;-47
2023/04/11 03:01:30;;;;;;;5.30;2.08;;;;;;;16.55;49.03;98892.94;5094301;28;20028;-47
2023/04/11 03:03:56;;;;;;;10.43;4.05;;;;;;;16.56;49.88;98898.03;5092726;28;20118;-47
2023/04/11 03:06:22;;;;;;;7.55;3.42;;;;;;;16.67;49.72;98891.06;5092938;28;20024;-46
2023/04/11 03:08:48;;;;;;;13.48;4.53;;;;;;;16.84;49.70;98900.97;5109922;28;20035;-47
2023/04/11 03:11:15;;;;;;;5.43;2.10;;;;;;;16.80;49.23;98889.97;5109843;28;20520;-47
2023/04/11 03:13:42;;;;;;;7.50;2.92;;;;;;;16.66;48.94;98888.66;5094066;28;20027;-47
2023/04/11 03:16:08;;;;;;;4.47;2.10;;;;;;;16.72;48.35;98887.72;5109702;28;20032;-46
2023/04/11 03:18:34;;;;;;;7.70;2.38;;;;;;;16.72;48.33;98887.72;5109746;28;20405;-47
2023/04/11 03:20:59;;;;;;;8.02;2.15;;;;;;;16.84;47.66;98888.53;5093969;28;20114;-47
2023/04/11 03:23:25;;;;;;;6.53;2.15;;;;;;;16.99;47.56;98879.25;5109617;28;20035;-47
2023/04/11 03:25:52;;;;;;;6.45;2.67;;;;;;;17.03;47.67;98883.03;5092542;28;20034;-47
2023/04/11 03:28:18;;;;;;;5.47;2.10;;;;;;;17.10;46.78;98883.69;5075590;28;20148;-47
2023/04/11 03:30:45;;;;;;;4.88;1.52;;;;;;;17.08;46.83;98893.72;5109408;28;20081;-47
2023/04/11 03:33:11;;;;;;;4.28;2.25;;;;;;;16.92;46.98;98898.75;5093744;28;20405;-47
2023/04/11 03:35:36;;;;;;;9.40;2.22;;;;;;;16.96;47.57;98894.59;5093555;28;20024;-47
2023/04/11 03:38:02;;;;;;;6.38;2.63;;;;;;;17.12;47.42;98893.03;5109308;28;20035;-46
2023/04/11 03:40:28;;;;;;;6.78;2.90;;;;;;;17.08;47.12;98891.91;5093839;28;20024;-47
2023/04/11 03:42:55;;;;;;;6.25;2.42;;;;;;;17.19;47.46;98887.56;5093527;28;20501;-47
2023/04/11 03:45:20;;;;;;;5.93;2.30;;;;;;;17.26;46.35;98890.06;5093513;28;20107;-47
2023/04/11 03:47:46;;;;;;;8.57;2.13;;;;;;;17.23;45.99;98883.41;5093416;28;20049;-47
2023/04/11 03:50:12;;;;;;;7.28;2.35;;;;;;;17.12;45.91;98890.38;5093425;28;20106;-47
2023/04/11 03:52:37;;;;;;;7.90;3.20;;;;;;;16.88;46.47;98881.72;5109059;28;20036;-47
2023/04/11 03:55:04;;;;;;;4.32;2.13;;;;;;;16.88;46.83;98879.06;5093219;28;20027;-47
2023/04/11 03:57:31;;;;;;;3.67;2.50;;;;;;;16.87;47.48;98877.44;5093246;28;20478;-47
2023/04/11 03:59:57;;;;;;;11.15;2.45;;;;;;;16.96;46.97;98884.00;5109065;28;20042;-47
2023/04/11 04:02:23;;;;;;;8.27;3.38;;;;;;;17.00;47.44;98876.34;5093151;28;20024;-47
2023/04/11 04:04:53;;;;;;;7.80;2.78;;;;;;;17.14;47.17;98871.56;5093052;28;20055;-47
2023/04/11 04:07:22;;;;;;;7.43;2.50;;;;;;;17.30;46.29;98876.06;5091802;28;20081;-47
2023/04/11 04:09:48;;;;;;;8.18;2.05;;;;;;;17.18;46.23;98854.13;5092937;28;20035;-47
2023/04/11 04:12:16;;;;;;;6.60;2.60;;;;;;;17.15;46.23;98865.22;5108606;28;20035;-47
2023/04/11 04:14:42;;;;;;;8.10;2.42;;;;;;;17.13;46.72;98869.97;5093117;28;20378;-47
2023/04/11 04:17:08;;;;;;;5.10;1.60;;;;;;;17.18;46.44;98872.69;5092243;28;20039;-47
2023/04/11 04:19:34;;;;;;;13.18;2.75;;;;;;;17.18;46.60;98870.03;5108510;28;20032;-47
2023/04/11 04:21:59;;;;;;;8.23;2.13;;;;;;;17.08;46.63;98869.84;5108428;28;20034;-47
2023/04/11 04:24:25;;;;;;;9.55;2.63;;;;;;;17.02;46.43;98868.16;5092807;28;20118;-47
2023/04/11 04:26:51;;;;;;;7.63;3.30;;;;;;;16.99;47.04;98872.09;5108320;28;20027;-47
2023/04/11 04:29:17;;;;;;;6.60;2.28;;;;;;;17.09;46.66;98871.47;5108098;28;20083;-47
2023/04/11 04:31:43;;;;;;;16.02;3.60;;;;;;;17.07;46.56;98870.91;5092794;28;20489;-47
2023/04/11 04:34:09;;;;;;;7.03;2.70;;;;;;;17.06;46.41;98893.16;5074499;28;20033;-47
2023/04/11 04:36:45;;;;;;;5.22;2.10;;;;;;;17.07;46.44;98929.25;5108089;28;20063;-46
2023/04/11 04:39:18;;;;;;;10.77;2.75;;;;;;;16.96;48.31;98947.63;5108169;28;20118;-46
2023/04/11 04:41:48;;;;;;;8.63;2.28;;;;;;;16.93;48.22;98956.03;5108014;28;20572;-46
2023/04/11 04:44:16;;;;;;;5.25;2.40;;;;;;;17.09;47.97;98969.59;5108017;28;20032;-45
2023/04/11 04:46:43;;;;;;;4.40;1.70;;;;;;;17.31;47.41;98983.81;5092300;28;20020;-46
2023/04/11 04:49:09;;;;;;;7.47;2.03;;;;;;;17.52;46.73;98984.19;5092312;28;20468;-46
2023/04/11 04:51:36;;;;;;;10.98;2.83;;;;;;;17.74;46.20;98995.72;5092277;28;20020;-46
2023/04/11 04:54:03;;;;;;;4.18;1.70;;;;;;;18.09;45.99;99005.38;5107957;28;20053;-46
2023/04/11 04:56:29;;;;;;;6.32;2.25;;;;;;;18.29;45.30;99012.03;5092344;28;20020;-46
2023/04/11 04:58:56;;;;;;;9.07;2.47;;;;;;;18.20;46.03;99018.81;5108153;28;20028;-46
2023/04/11 05:01:25;;;;;;;11.90;2.60;;;;;;;18.13;46.73;99018.97;5092134;28;20027;-46
2023/04/11 05:03:57;;;;;;;5.47;2.65;;;;;;;17.88;47.71;99022.00;5092073;28;20024;-45
2023/04/11 05:06:28;;;;;;;11.60;2.17;;;;;;;17.61;49.00;99041.16;5107704;28;20030;-46
2023/04/11 05:08:55;;;;;;;7.18;1.83;;;;;;;17.42;50.12;99048.47;5074153;28;20401;-46
2023/04/11 05:11:22;;;;;;;7.90;1.90;;;;;;;17.39;50.24;99051.63;5092006;28;20107;-46
2023/04/11 05:13:48;;;;;;;5.80;1.30;;;;;;;17.49;50.42;99051.00;5090824;28;20048;-46
2023/04/11 05:16:15;;;;;;;9.45;1.55;;;;;;;17.79;53.67;99061.38;5107785;28;20114;-45
2023/04/11 05:18:41;;;;;;;4.88;1.50;;;;;;;17.75;54.55;99061.06;5107569;28;20050;-46
2023/04/11 05:21:07;;;;;;;7.65;1.70;;;;;;;17.50;56.01;99073.84;5107626;28;20028;-46
2023/04/11 05:23:32;;;;;;;7.25;1.90;;;;;;;17.12;57.62;99080.50;5091919;28;20410;-45
2023/04/11 05:25:58;;;;;;;9.88;2.55;;;;;;;16.81;60.20;99086.97;5107534;28;20441;-45
2023/04/11 05:28:24;;;;;;;7.82;1.10;;;;;;;16.26;63.50;99091.53;5094829;28;20075;-45
2023/04/11 05:30:49;;;;;;;5.93;1.45;;;;;;;15.90;66.75;99097.75;5096089;28;20073;-45
2023/04/11 05:33:15;;;;;;;9.82;1.52;;;;;;;15.58;68.01;99095.28;5096079;28;20077;-45
2023/04/11 05:35:41;;;;;;;4.35;1.70;;;;;;;15.27;70.45;99091.78;5111984;28;20111;-45
2023/04/11 05:38:08;;;;;;;8.98;1.48;;;;;;;15.16;72.39;99092.50;5095963;28;20052;-45
2023/04/11 05:40:35;;;;;;;10.65;1.95;;;;;;;15.24;74.21;99086.91;5111553;28;20034;-45
2023/04/11 05:43:01;;;;;;;12.27;1.60;;;;;;;15.17;75.51;99097.56;5096144;28;20027;-45
2023/04/11 05:45:27;;;;;;;9.05;1.10;;;;;;;15.09;76.33;99107.63;5111529;28;20574;-45
2023/04/11 05:47:53;;;;;;;8.88;1.73;;;;;;;15.09;76.79;99104.97;5096109;28;20024;-45
2023/04/11 05:50:19;;;;;;;6.30;1.30;;;;;;;15.00;76.11;99098.38;5111496;28;20569;-46
2023/04/11 05:52:44;;;;;;;5.43;1.40;;;;;;;14.95;76.89;99101.66;5111385;28;20031;-46
2023/04/11 05:55:10;;;;;;;6.20;1.55;;;;;;;14.78;78.50;99107.50;5077613;28;20039;-45
2023/04/11 05:57:36;;;;;;;6.85;1.88;;;;;;;14.59;80.13;99113.78;5095586;28;20425;-45
2023/04/11 06:00:11;;;;;;;4.28;1.38;;;;;;;14.28;82.21;99118.00;5095859;28;20031;-46
2023/04/11 06:02:37;;;;;;;10.32;1.77;;;;;;;13.99;84.03;99122.06;5111179;28;20028;-46
2023/04/11 06:05:03;;;;;;;6.95;1.42;;;;;;;13.89;87.21;99116.44;5095492;28;20154;-45
2023/04/11 06:07:31;;;;;;;15.45;2.42;;;;;;;13.97;88.54;99105.63;5095351;28;20103;-45
2023/04/11 06:09:57;;;;;;;7.65;2.10;;;;;;;13.99;89.20;99116.78;5095342;28;20085;-45
2023/04/11 06:12:23;;;;;;;12.63;6.22;;;;;;;14.07;90.22;99108.63;5093946;28;20027;-45
2023/04/11 06:14:48;;;;;;;7.95;2.15;;;;;;;14.16;90.27;99115.25;5095210;28;20040;-46
2023/04/11 06:17:14;;;;;;;16.27;2.13;;;;;;;14.11;89.82;99111.66;5095470;28;20052;-45
2023/04/11 06:19:40;;;;;;;11.45;4.10;;;;;;;14.03;89.05;99112.69;5077030;28;20030;-45
2023/04/11 06:22:06;;;;;;;7.82;1.48;;;;;;;13.83;89.08;99115.44;5076932;28;20040;-45
2023/04/11 06:24:37;;;;;;;120.88;24.63;;;;;;;13.86;89.79;99115.00;5095107;28;20434;-45
2023/04/11 06:27:02;;;;;;;98.88;13.23;;;;;;;13.69;88.08;99109.41;5094928;28;20020;-45
2023/04/11 06:29:29;;;;;;;42.80;5.63;;;;;;;13.58;88.62;99108.25;5093492;28;20052;-45
2023/04/11 06:31:55;;;;;;;17.90;2.28;;;;;;;13.73;89.16;99125.66;5095027;28;20103;-45
2023/04/11 06:34:21;;;;;;;11.77;1.60;;;;;;;13.81;88.88;99129.88;5110655;28;20035;-45
2023/04/11 06:36:48;;;;;;;11.63;2.00;;;;;;;13.76;87.58;99123.41;5094869;28;20024;-45
2023/04/11 06:39:18;;;;;;;17.48;3.30;;;;;;;13.67;86.79;99124.66;5109814;28;20541;-45
2023/04/11 06:41:45;;;;;;;15.00;2.50;;;;;;;13.51;86.27;99133.03;5110486;28;20024;-45
2023/04/11 06:44:11;;;;;;;12.60;2.35;;;;;;;13.57;87.66;99137.47;5093538;28;20052;-45
2023/04/11 06:46:36;;;;;;;10.00;3.22;;;;;;;13.76;88.52;99147.16;5094679;28;20044;-45
2023/04/11 06:49:02;;;;;;;7.72;1.50;;;;;;;13.95;88.66;99158.63;5076890;28;20092;-45
2023/04/11 06:51:28;;;;;;;9.13;1.67;;;;;;;14.05;87.38;99162.66;5094600;28;20038;-45
2023/04/11 06:53:54;;;;;;;10.30;1.33;;;;;;;14.18;87.29;99160.75;5094563;28;20031;-45
2023/04/11 06:56:20;;;;;;;5.32;1.35;;;;;;;14.34;87.53;99177.09;5110105;28;20024;-45
2023/04/11 06:58:46;;;;;;;6.03;1.05;;;;;;;14.46;86.67;99177.22;5094528;28;20473;-45
2023/04/11 07:01:13;;;;;;;6.97;2.25;;;;;;;14.48;86.52;99177.81;5094426;28;20024;-45
2023/04/11 07:03:38;;;;;;;7.22;2.03;;;;;;;14.29;85.73;99171.66;5094598;28;20069;-45
2023/04/11 07:06:06;;;;;;;5.45;1.65;;;;;;;14.07;85.67;99173.78;5093281;28;20494;-45
2023/04/11 07:08:32;;;;;;;10.95;2.00;;;;;;;13.93;87.72;99180.97;5094225;28;20031;-46
2023/04/11 07:10:58;;;;;;;10.40;2.03;;;;;;;14.10;89.13;99182.06;5109923;28;20109;-45
2023/04/11 07:13:23;;;;;;;8.88;1.77;;;;;;;14.21;88.43;99179.81;5094237;28;20501;-45
2023/04/11 07:15:49;;;;;;;13.18;3.05;;;;;;;14.22;88.33;99173.50;5094036;28;20027;-46
2023/04/11 07:18:15;;;;;;;5.70;1.83;;;;;;;14.28;86.17;99172.66;5109772;28;20031;-45
2023/04/11 07:20:41;;;;;;;14.10;3.30;;;;;;;14.28;87.05;99184.03;5109644;28;20028;-45
2023/04/11 07:23:07;;;;;;;7.80;2.75;;;;;;;14.31;87.95;99190.72;5094008;28;20028;-46
2023/04/11 07:25:32;;;;;;;14.18;4.53;;;;;;;14.13;87.12;99183.50;5109578;28;20024;-46
2023/04/11 07:27:59;;;;;;;93.03;8.52;;;;;;;14.09;88.34;99177.84;5094078;28;20443;-46
2023/04/11 07:30:26;;;;;;;230.20;21.08;;;;;;;13.90;87.01;99178.72;5092258;28;20052;-46
2023/04/11 07:32:52;;;;;;;266.98;21.80;;;;;;;13.67;84.68;99176.59;5093813;28;20027;-46
2023/04/11 07:35:18;;;;;;;67.68;8.80;;;;;;;13.55;83.82;99173.78;5093567;28;20031;-46
2023/04/11 07:37:44;;;;;;;25.42;2.88;;;;;;;13.43;79.94;99168.34;5093684;28;20023;-47
2023/04/11 07:40:13;;;;;;;20.88;3.25;;;;;;;13.41;81.19;99162.47;5093630;28;20050;-46
2023/04/11 07:42:39;;;;;;;10.23;2.92;;;;;;;13.38;80.82;99160.22;5092304;28;20458;-46
2023/04/11 07:45:06;;;;;;;8.40;2.33;;;;;;;13.55;81.62;99144.78;5093630;28;20040;-46
2023/04/11 07:47:32;;;;;;;8.18;2.25;;;;;;;13.80;81.94;99142.22;5109239;28;20555;-47
2023/04/11 07:49:57;;;;;;;14.35;3.03;;;;;;;14.07;78.53;99142.13;5108922;28;20027;-47
2023/04/11 07:52:24;;;;;;;14.45;3.53;;;;;;;14.26;77.76;99133.25;5092581;28;20398;-47
2023/04/11 07:54:50;;;;;;;11.02;2.00;;;;;;;14.54;75.32;99130.22;5091986;28;20032;-47
2023/04/11 07:57:16;;;;;;;7.57;1.75;;;;;;;14.71;72.91;99127.91;5108896;28;20486;-46
2023/04/11 07:59:42;;;;;;;8.38;1.90;;;;;;;14.88;73.15;99120.22;5108931;28;20024;-46
2023/04/11 08:02:08;;;;;;;9.65;2.50;;;;;;;15.09;71.85;99115.53;5075032;28;20430;-46
2023/04/11 08:04:35;;;;;;;6.47;2.10;;;;;;;15.31;68.41;99094.75;5093171;28;20031;-47
2023/04/11 08:07:02;;;;;;;7.82;2.72;;;;;;;15.41;68.02;99102.19;5108760;28;20031;-46
2023/04/11 08:09:28;;;;;;;10.88;3.17;;;;;;;15.46;69.44;99112.94;5093097;28;20023;-46
2023/04/11 08:11:55;;;;;;;5.90;2.10;;;;;;;15.62;68.95;99119.47;5093031;28;20375;-47
2023/04/11 08:14:22;;;;;;;4.60;1.55;;;;;;;15.55;68.21;99114.22;5092978;28;20024;-46
2023/04/11 08:16:48;;;;;;;4.35;1.55;;;;;;;15.44;67.10;99118.44;5092914;28;20107;-46
2023/04/11 08:19:14;;;;;;;5.82;1.70;;;;;;;15.49;67.07;99115.09;5092889;28;20120;-46
2023/04/11 08:21:40;;;;;;;6.57;1.60;;;;;;;15.54;66.10;99109.97;5092865;28;20023;-46
2023/04/11 08:24:07;;;;;;;5.40;2.05;;;;;;;15.70;67.31;99108.56;5074670;28;20032;-46
2023/04/11 08:26:32;;;;;;;6.13;1.88;;;;;;;15.85;65.39;99106.34;5108410;28;20032;-46
2023/04/11 08:28:58;;;;;;;7.10;3.00;;;;;;;16.08;66.33;99116.22;5108269;28;20402;-46
2023/04/11 08:31:25;;;;;;;7.57;3.35;;;;;;;16.21;64.58;99109.13;5092674;28;20386;-47
2023/04/11 08:33:51;;;;;;;11.70;3.05;;;;;;;16.48;66.20;99097.09;5092670;28;20481;-46
2023/04/11 08:36:17;;;;;;;9.10;2.60;;;;;;;16.94;65.08;99106.13;5108183;28;20035;-46
2023/04/11 08:38:42;;;;;;;10.25;2.65;;;;;;;17.05;60.88;99109.00;5108201;28;20028;-46
2023/04/11 08:41:10;;;;;;;9.07;2.40;;;;;;;17.06;60.99;99113.25;5108179;28;20053;-46
2023/04/11 08:43:38;;;;;;;3.05;1.17;;;;;;;16.97;59.83;99113.59;5092734;28;20122;-46
2023/04/11 08:46:06;;;;;;;7.88;1.10;;;;;;;16.69;59.50;99119.56;5092452;28;20392;-46
2023/04/11 08:48:32;;;;;;;4.60;1.25;;;;;;;16.33;60.54;99124.00;5091071;28;20508;-46
2023/04/11 08:50:58;;;;;;;7.40;1.55;;;;;;;16.06;61.71;99136.81;5092357;28;20040;-46
2023/04/11 08:53:25;;;;;;;3.13;1.00;;;;;;;15.89;61.67;99131.31;5092315;28;20028;-46
2023/04/11 08:55:51;;;;;;;8.13;1.77;;;;;;;15.81;62.48;99120.25;5107839;28;20070;-46
2023/04/11 08:58:17;;;;;;;4.75;1.58;;;;;;;15.92;63.26;99119.50;5092246;28;20055;-46
2023/04/11 09:00:44;;;;;;;15.30;2.47;;;;;;;16.35;64.74;99113.19;5092168;28;20047;-46
2023/04/11 09:03:11;;;;;;;7.43;2.08;;;;;;;16.59;61.00;99100.78;5091931;28;20048;-46
2023/04/11 09:05:39;;;;;;;9.13;2.33;;;;;;;16.80;61.22;99107.34;5092109;28;20024;-47
2023/04/11 09:08:07;;;;;;;8.85;2.00;;;;;;;17.23;58.41;99105.41;5090763;28;20127;-47
2023/04/11 09:10:33;;;;;;;7.82;2.20;;;;;;;17.29;58.23;99109.78;5092057;28;20027;-47
2023/04/11 09:13:00;;;;;;;9.48;2.28;;;;;;;17.26;57.38;99100.41;5092089;28;20036;-47
2023/04/11 09:15:28;;;;;;;8.98;2.13;;;;;;;17.17;57.40;99113.25;5091883;28;20034;-47
2023/04/11 09:17:55;;;;;;;5.03;1.10;;;;;;;17.08;55.33;99106.69;5092271;28;20492;-47
2023/04/11 09:20:29;;;;;;;8.32;2.03;;;;;;;17.07;55.99;99106.91;5092163;28;20096;-47
2023/04/11 09:22:57;;;;;;;5.55;1.65;;;;;;;17.13;56.31;99103.34;5091993;28;20062;-47
2023/04/11 09:25:23;;;;;;;7.95;1.77;;;;;;;17.07;55.49;99101.63;5091857;28;20024;-47
2023/04/11 09:28:05;;;;;;;6.68;1.50;;;;;;;17.03;55.39;99103.13;5090576;28;20035;-46
2023/04/11 09:30:31;;;;;;;9.45;2.85;;;;;;;16.95;57.86;99113.03;5059344;28;20040;-47
2023/04/11 09:32:57;;;;;;;7.65;1.85;;;;;;;16.84;56.46;99113.03;5091859;28;20024;-46
2023/04/11 09:35:27;;;;;;;10.93;2.75;;;;;;;16.64;55.90;99126.56;5091691;28;20024;-47
2023/04/11 09:37:58;;;;;;;7.10;1.50;;;;;;;16.58;55.13;99101.81;5107440;28;20106;-47
2023/04/11 09:40:31;;;;;;;9.00;2.20;;;;;;;16.69;55.79;99103.66;5090640;28;20405;-47
2023/04/11 09:43:02;;;;;;;9.77;2.85;;;;;;;17.41;55.05;99091.19;5090870;28;20039;-47
2023/04/11 09:45:30;;;;;;;8.15;2.03;;;;;;;18.00;51.42;99094.44;5090490;28;20029;-47
2023/04/11 09:47:57;;;;;;;9.85;2.58;;;;;;;17.99;52.29;99089.34;5091662;28;20016;-46
2023/04/11 09:50:25;;;;;;;6.43;2.67;;;;;;;17.90;50.77;99084.44;5107282;28;20500;-47
2023/04/11 09:52:54;;;;;;;65.55;5.63;;;;;;;17.95;50.62;99089.06;5107340;28;20432;-47
2023/04/11 09:55:24;;;;;;;251.75;19.17;;;;;;;17.96;50.61;99080.81;5091761;28;20029;-47
2023/04/11 09:57:52;;;;;;;272.17;19.55;;;;;;;18.13;50.12;99080.88;5091830;28;20020;-47
2023/04/11 10:00:21;;;;;;;99.85;9.27;;;;;;;18.22;49.52;99078.63;5090174;28;20030;-47
2023/04/11 10:02:52;;;;;;;21.85;6.18;;;;;;;18.52;49.70;99083.59;5107199;28;20081;-47
2023/04/11 10:05:19;;;;;;;28.08;8.48;;;;;;;18.81;49.19;99080.88;5091554;28;20099;-47
2023/04/11 10:07:57;;;;;;;26.52;6.93;;;;;;;18.75;47.66;99073.84;5091563;28;20024;-46
2023/04/11 10:10:23;;;;;;;18.15;3.45;;;;;;;18.74;47.14;99062.41;5107133;28;20047;-47
2023/04/11 10:12:50;;;;;;;12.82;2.55;;;;;;;18.78;46.59;99060.06;5107212;28;20125;-47
2023/04/11 10:15:17;;;;;;;14.02;2.58;;;;;;;19.11;46.39;99061.06;5109632;28;20024;-47
2023/04/11 10:18:11;;;;;;;9.57;1.50;;;;;;;19.69;44.59;99053.47;5095291;28;20042;-47
2023/04/11 10:20:42;;;;;;;11.65;2.33;;;;;;;20.02;44.18;99054.34;5095219;28;20374;-44
2023/04/11 10:23:09;;;;;;;13.55;2.33;;;;;;;19.83;43.89;99057.38;5095470;28;20113;-44
2023/04/11 10:25:52;;;;;;;7.93;1.40;;;;;;;19.71;44.44;99052.19;5110924;28;20012;-44
2023/04/11 10:28:37;;;;;;;11.90;2.35;;;;;;;19.81;44.35;99062.13;5110616;28;20024;-44
2023/04/11 10:31:15;;;;;;;13.73;2.58;;;;;;;19.91;43.76;99050.78;5095021;28;20028;-44
2023/04/11 10:34:12;;;;;;;6.38;1.95;;;;;;;19.81;43.24;99048.03;5095084;28;20111;-44
2023/04/11 10:37:02;;;;;;;8.57;2.33;;;;;;;19.86;43.71;99040.91;5094882;28;20103;-45
2023/04/11 10:39:52;;;;;;;7.38;1.98;;;;;;;20.24;43.27;99049.75;5110491;28;20453;-44
2023/04/11 10:42:28;;;;;;;7.47;1.90;;;;;;;20.51;41.45;99047.00;5094653;28;20027;-45
2023/04/11 10:45:16;;;;;;;6.20;1.90;;;;;;;20.69;41.47;99037.81;5094960;28;20035;-44
2023/04/11 10:47:58;;;;;;;13.00;2.85;;;;;;;20.65;41.66;99036.72;5094897;28;20036;-45
2023/04/11 10:50:33;;;;;;;9.73;1.98;;;;;;;20.69;41.35;99037.00;5094637;28;20031;-45
2023/04/11 10:53:00;;;;;;;10.43;2.57;;;;;;;20.66;41.43;99038.31;5094606;28;20070;-45
2023/04/11 10:55:28;;;;;;;7.78;2.03;;;;;;;20.96;40.88;99039.53;5093243;28;20282;-44
2023/04/11 10:58:08;;;;;;;16.35;3.35;;;;;;;21.38;39.54;99045.84;5093192;28;20032;-45
2023/04/11 11:00:59;;;;;;;9.80;2.60;;;;;;;21.68;39.05;99043.28;5094756;28;20035;-45
2023/04/11 11:03:29;;;;;;;9.30;1.73;;;;;;;21.79;38.40;99040.63;5091690;28;20121;-45
2023/04/11 11:06:03;;;;;;;5.07;1.40;;;;;;;21.92;38.29;99037.44;5094624;28;20020;-45
2023/04/11 11:08:32;;;;;;;8.87;2.07;;;;;;;21.85;37.89;99031.56;5094317;28;20028;-44
2023/04/11 11:11:03;;;;;;;7.13;2.05;;;;;;;21.56;38.10;99032.03;5094225;28;20032;-44
2023/04/11 11:13:39;;;;;;;17.05;4.20;;;;;;;21.29;39.16;99019.66;5094142;28;20024;-45
2023/04/11 11:16:06;;;;;;;13.82;4.45;;;;;;;21.14;39.52;99011.59;5109743;28;20024;-45
2023/04/11 11:18:33;;;;;;;6.85;1.85;;;;;;;21.13;39.71;99010.81;5109830;28;20145;-45
2023/04/11 11:20:59;;;;;;;9.52;1.83;;;;;;;21.61;38.91;99016.03;5094311;28;20389;-44
2023/04/11 11:23:25;;;;;;;10.80;2.38;;;;;;;21.96;37.98;99014.47;5093978;28;20019;-45
2023/04/11 11:25:55;;;;;;;15.35;3.95;;;;;;;22.47;37.71;99003.75;5093761;28;20103;-45
2023/04/11 11:28:22;;;;;;;7.65;1.98;;;;;;;23.04;36.28;99003.59;5093739;28;20016;-45
2023/04/11 11:30:53;;;;;;;20.92;2.55;;;;;;;23.61;35.54;98996.88;5092681;28;20020;-44
2023/04/11 11:33:21;;;;;;;6.85;2.03;;;;;;;24.32;34.41;99003.53;5075594;28;20421;-45